Time;durP1;ratioP1;P1;durP2;ratioP2;P2;SDS_P1;SDS_P2;PMS_P1;PMS_P2;Temp;Humidity;BMP_temperature;BMP_pressure;BME280_temperature;BME280_humidity;BME280_pressure;Samples;Min_cycle;Max_cycle;Signal;HPM_P1;HPM_P2
2021/07/29 00:01:39;;;;;;;7.38;3.83;;;;;;;;;;5031423;28;20016;-65
2021/07/29 00:04:05;;;;;;;13.13;3.63;;;;;;;;;;5034472;28;20454;-66
2021/07/29 00:06:30;;;;;;;6.25;3.20;;;;;;;;;;5033049;28;20021;-65
2021/07/29 00:08:55;;;;;;;7.10;3.10;;;;;;;;;;5015546;28;20024;-65
2021/07/29 00:11:22;;;;;;;9.27;3.70;;;;;;;;;;5015421;28;20101;-66
2021/07/29 00:13:50;;;;;;;9.48;3.38;;;;;;;;;;5015884;28;20021;-66
2021/07/29 00:16:16;;;;;;;6.22;3.20;;;;;;;;;;5015354;28;20029;-66
2021/07/29 00:21:26;;;;;;;10.55;3.15;;;;;;;;;;5015767;28;20028;-66
2021/07/29 00:23:51;;;;;;;8.95;3.35;;;;;;;;;;5014818;28;20021;-65
2021/07/29 00:26:17;;;;;;;8.30;3.42;;;;;;;;;;5015258;28;20096;-65
2021/07/29 00:28:42;;;;;;;8.45;2.75;;;;;;;;;;5014918;28;20026;-66
2021/07/29 00:31:08;;;;;;;5.60;3.85;;;;;;;;;;5013761;28;20479;-66
2021/07/29 00:33:33;;;;;;;9.93;3.15;;;;;;;;;;5014888;28;20084;-66
2021/07/29 00:35:59;;;;;;;8.30;3.35;;;;;;;;;;5014332;28;20382;-66
2021/07/29 00:38:25;;;;;;;8.10;3.17;;;;;;;;;;5014431;28;20080;-66
2021/07/29 00:40:51;;;;;;;10.18;3.50;;;;;;;;;;5014376;28;20503;-65
2021/07/29 00:43:16;;;;;;;7.10;2.97;;;;;;;;;;5014724;28;20018;-65
2021/07/29 00:45:45;;;;;;;8.90;3.50;;;;;;;;;;5014323;28;20501;-66
2021/07/29 00:48:13;;;;;;;8.48;3.45;;;;;;;;;;5014662;28;20021;-66
2021/07/29 00:50:38;;;;;;;7.25;3.63;;;;;;;;;;5014345;28;20033;-66
2021/07/29 00:53:04;;;;;;;7.18;3.00;;;;;;;;;;5013702;28;20013;-66
2021/07/29 00:55:31;;;;;;;14.20;3.90;;;;;;;;;;5014009;28;20042;-66
2021/07/29 00:57:57;;;;;;;5.50;3.55;;;;;;;;;;5013837;28;20018;-66
2021/07/29 01:00:23;;;;;;;6.15;3.90;;;;;;;;;;5013653;28;20022;-66
2021/07/29 01:02:49;;;;;;;8.32;3.88;;;;;;;;;;5013867;28;20022;-66
2021/07/29 01:05:15;;;;;;;6.93;4.03;;;;;;;;;;5013608;28;20061;-65
2021/07/29 01:07:42;;;;;;;4.97;3.83;;;;;;;;;;5013431;28;20030;-66
2021/07/29 01:10:08;;;;;;;10.52;4.05;;;;;;;;;;5013877;28;20044;-66
2021/07/29 01:12:34;;;;;;;5.93;3.75;;;;;;;;;;4996133;28;20026;-66
2021/07/29 01:15:00;;;;;;;12.07;4.15;;;;;;;;;;5013061;28;20022;-66
2021/07/29 01:17:30;;;;;;;6.00;3.25;;;;;;;;;;5013750;28;20036;-66
2021/07/29 01:19:57;;;;;;;6.90;4.47;;;;;;;;;;5013408;28;20050;-66
2021/07/29 01:22:22;;;;;;;7.50;4.90;;;;;;;;;;5013247;28;20026;-66
2021/07/29 01:24:48;;;;;;;6.28;4.13;;;;;;;;;;5013008;28;20029;-66
2021/07/29 01:27:17;;;;;;;8.60;4.00;;;;;;;;;;5013119;28;20049;-66
2021/07/29 01:29:42;;;;;;;7.97;4.40;;;;;;;;;;5012755;28;20014;-66
2021/07/29 01:32:07;;;;;;;13.10;4.20;;;;;;;;;;5013633;28;20022;-66
2021/07/29 01:34:34;;;;;;;6.78;3.97;;;;;;;;;;5013722;28;20498;-66
2021/07/29 01:36:59;;;;;;;4.40;3.92;;;;;;;;;;5012577;28;20033;-66
2021/07/29 01:39:24;;;;;;;7.25;4.78;;;;;;;;;;5013173;28;20383;-66
2021/07/29 01:41:50;;;;;;;8.02;4.43;;;;;;;;;;5013245;28;20113;-66
2021/07/29 01:44:15;;;;;;;7.68;4.78;;;;;;;;;;5013407;28;20022;-66
2021/07/29 01:46:41;;;;;;;7.63;4.63;;;;;;;;;;5012700;28;20022;-66
2021/07/29 01:49:06;;;;;;;8.07;4.63;;;;;;;;;;5013772;28;20017;-65
2021/07/29 01:51:31;;;;;;;8.48;4.53;;;;;;;;;;5013097;28;20029;-66
2021/07/29 01:53:58;;;;;;;8.45;4.53;;;;;;;;;;5012284;28;20022;-65
2021/07/29 01:56:23;;;;;;;5.93;4.63;;;;;;;;;;5012723;28;20018;-66
2021/07/29 01:58:48;;;;;;;6.07;4.22;;;;;;;;;;5013004;28;20068;-66
2021/07/29 02:01:21;;;;;;;9.68;4.65;;;;;;;;;;5012272;28;20022;-65
2021/07/29 02:03:47;;;;;;;7.57;4.70;;;;;;;;;;5012566;28;20054;-66
2021/07/29 02:06:13;;;;;;;10.80;5.38;;;;;;;;;;5012977;28;20388;-66
2021/07/29 02:08:38;;;;;;;9.63;5.05;;;;;;;;;;5012353;28;20017;-66
2021/07/29 02:11:04;;;;;;;9.50;5.43;;;;;;;;;;5012488;28;20020;-66
2021/07/29 02:13:29;;;;;;;6.47;4.60;;;;;;;;;;5012910;28;20082;-66
2021/07/29 02:15:55;;;;;;;11.40;5.10;;;;;;;;;;5012121;28;20026;-65
2021/07/29 02:18:20;;;;;;;8.18;4.95;;;;;;;;;;5012835;28;20072;-66
2021/07/29 02:20:46;;;;;;;8.40;5.32;;;;;;;;;;5012649;28;20052;-66
2021/07/29 02:23:11;;;;;;;8.02;5.57;;;;;;;;;;5012227;28;20026;-65
2021/07/29 02:25:36;;;;;;;8.02;5.50;;;;;;;;;;5012554;28;20017;-66
2021/07/29 02:28:02;;;;;;;10.00;5.78;;;;;;;;;;5012385;28;20029;-66
2021/07/29 02:30:27;;;;;;;7.40;5.13;;;;;;;;;;5012109;28;20022;-66
2021/07/29 02:32:53;;;;;;;7.72;5.43;;;;;;;;;;5012566;28;20025;-66
2021/07/29 02:35:18;;;;;;;7.85;5.43;;;;;;;;;;5014984;28;20505;-66
2021/07/29 02:37:44;;;;;;;8.32;5.97;;;;;;;;;;5015974;28;20025;-66
2021/07/29 02:40:10;;;;;;;11.15;6.00;;;;;;;;;;5016646;28;20029;-66
2021/07/29 02:42:35;;;;;;;8.52;5.47;;;;;;;;;;5016488;28;20387;-66
2021/07/29 02:45:01;;;;;;;8.50;5.70;;;;;;;;;;5015867;28;20064;-66
2021/07/29 02:47:28;;;;;;;9.25;5.85;;;;;;;;;;5016693;28;20076;-66
2021/07/29 02:49:53;;;;;;;8.20;5.28;;;;;;;;;;5016071;28;20028;-66
2021/07/29 02:52:19;;;;;;;10.20;5.95;;;;;;;;;;5016047;28;20108;-66
2021/07/29 02:54:44;;;;;;;8.93;5.88;;;;;;;;;;5016369;28;20021;-66
2021/07/29 02:57:10;;;;;;;9.68;4.95;;;;;;;;;;5016006;28;20482;-65
2021/07/29 02:59:35;;;;;;;7.82;5.38;;;;;;;;;;5015840;28;20032;-66
2021/07/29 03:02:00;;;;;;;8.05;5.28;;;;;;;;;;5016382;28;20022;-66
2021/07/29 03:04:26;;;;;;;7.70;5.60;;;;;;;;;;5015985;28;20042;-66
2021/07/29 03:06:53;;;;;;;8.00;5.68;;;;;;;;;;5015342;28;20014;-66
2021/07/29 03:09:18;;;;;;;8.73;5.50;;;;;;;;;;5015907;28;20083;-66
2021/07/29 03:11:43;;;;;;;7.00;4.82;;;;;;;;;;5015487;28;20026;-66
2021/07/29 03:14:09;;;;;;;8.57;5.50;;;;;;;;;;5015654;28;20018;-66
2021/07/29 03:16:35;;;;;;;6.28;5.30;;;;;;;;;;5015983;28;20039;-66
2021/07/29 03:19:03;;;;;;;12.90;5.20;;;;;;;;;;5015486;28;20028;-65
2021/07/29 03:21:29;;;;;;;6.47;4.93;;;;;;;;;;5015446;28;20018;-66
2021/07/29 03:23:54;;;;;;;16.05;4.93;;;;;;;;;;5015574;28;20153;-66
2021/07/29 03:26:19;;;;;;;7.07;4.80;;;;;;;;;;5015564;28;20025;-66
2021/07/29 03:28:45;;;;;;;6.60;5.00;;;;;;;;;;5015131;28;20026;-66
2021/07/29 03:31:10;;;;;;;8.80;4.90;;;;;;;;;;5015239;28;20018;-66
2021/07/29 03:33:37;;;;;;;8.57;5.38;;;;;;;;;;5015447;28;20125;-66
2021/07/29 03:36:04;;;;;;;5.82;4.35;;;;;;;;;;5014840;28;20030;-66
2021/07/29 03:38:30;;;;;;;7.53;4.57;;;;;;;;;;5015611;28;20033;-66
2021/07/29 03:40:55;;;;;;;9.30;4.60;;;;;;;;;;5015105;28;20025;-65
2021/07/29 03:43:20;;;;;;;8.13;4.18;;;;;;;;;;5015188;28;20471;-66
2021/07/29 03:45:46;;;;;;;9.27;4.65;;;;;;;;;;5014851;28;20497;-66
2021/07/29 03:48:11;;;;;;;8.77;3.88;;;;;;;;;;5015177;28;20026;-66
2021/07/29 03:50:38;;;;;;;6.75;3.70;;;;;;;;;;5014964;28;20108;-66
2021/07/29 03:53:03;;;;;;;6.63;4.03;;;;;;;;;;5015094;28;20030;-66
2021/07/29 03:55:29;;;;;;;11.80;3.80;;;;;;;;;;5015378;28;20395;-65
2021/07/29 03:57:54;;;;;;;9.15;3.53;;;;;;;;;;5014471;28;20065;-66
2021/07/29 04:00:19;;;;;;;5.05;3.60;;;;;;;;;;5015067;28;20026;-66
2021/07/29 04:02:45;;;;;;;6.00;3.80;;;;;;;;;;5015198;28;20025;-66
2021/07/29 04:05:10;;;;;;;8.77;3.40;;;;;;;;;;5014072;28;20111;-66
2021/07/29 04:07:36;;;;;;;6.55;3.40;;;;;;;;;;5014972;28;20471;-66
2021/07/29 04:10:03;;;;;;;5.35;3.72;;;;;;;;;;4998150;28;20029;-65
2021/07/29 04:12:28;;;;;;;10.15;3.50;;;;;;;;;;5017383;28;20364;-66
2021/07/29 04:14:54;;;;;;;5.00;3.53;;;;;;;;;;5016610;28;20041;-66
2021/07/29 04:17:20;;;;;;;4.82;3.65;;;;;;;;;;5021236;28;20029;-66
2021/07/29 04:19:46;;;;;;;5.40;3.55;;;;;;;;;;5035558;28;20025;-65
2021/07/29 04:22:12;;;;;;;5.07;3.63;;;;;;;;;;5035573;28;20053;-65
2021/07/29 04:24:37;;;;;;;10.43;4.00;;;;;;;;;;5019267;28;20025;-65
2021/07/29 04:27:04;;;;;;;5.10;3.40;;;;;;;;;;5014683;28;20049;-66
2021/07/29 04:29:34;;;;;;;4.28;2.95;;;;;;;;;;5015270;28;20014;-66
2021/07/29 04:32:01;;;;;;;6.70;3.70;;;;;;;;;;5014342;28;20034;-66
2021/07/29 04:34:26;;;;;;;4.05;3.42;;;;;;;;;;5015306;28;20087;-66
2021/07/29 04:36:53;;;;;;;6.32;3.30;;;;;;;;;;5014366;28;20066;-66
2021/07/29 04:39:19;;;;;;;5.95;3.80;;;;;;;;;;5014717;28;20014;-66
2021/07/29 04:41:45;;;;;;;7.53;3.65;;;;;;;;;;5014391;28;20022;-65
2021/07/29 04:44:11;;;;;;;6.78;4.15;;;;;;;;;;5013980;28;20014;-65
2021/07/29 04:46:37;;;;;;;9.48;3.15;;;;;;;;;;5014857;28;20018;-65
2021/07/29 04:49:04;;;;;;;5.78;3.05;;;;;;;;;;5014006;28;20025;-66
2021/07/29 04:51:32;;;;;;;7.00;3.75;;;;;;;;;;5013970;28;20113;-65
2021/07/29 04:53:57;;;;;;;5.50;3.05;;;;;;;;;;5014348;28;20097;-65
2021/07/29 04:56:23;;;;;;;10.05;3.50;;;;;;;;;;5014495;28;20124;-65
2021/07/29 04:58:49;;;;;;;22.58;4.60;;;;;;;;;;5013025;28;20041;-65
2021/07/29 05:01:16;;;;;;;6.60;3.40;;;;;;;;;;5014404;28;20029;-65
2021/07/29 05:03:41;;;;;;;4.93;3.00;;;;;;;;;;5014261;28;20050;-66
2021/07/29 05:06:07;;;;;;;9.27;3.15;;;;;;;;;;5013650;28;20021;-66
2021/07/29 05:08:33;;;;;;;4.68;2.80;;;;;;;;;;5014103;28;20037;-65
2021/07/29 05:11:01;;;;;;;6.32;2.80;;;;;;;;;;5013385;28;20018;-65
2021/07/29 05:13:26;;;;;;;5.00;2.83;;;;;;;;;;4991709;28;20019;-65
2021/07/29 05:15:52;;;;;;;11.85;3.20;;;;;;;;;;5009386;28;20514;-65
2021/07/29 05:18:17;;;;;;;5.72;3.22;;;;;;;;;;5013622;28;20144;-65
2021/07/29 05:20:42;;;;;;;7.40;2.58;;;;;;;;;;5013248;28;20018;-65
2021/07/29 05:23:08;;;;;;;5.25;2.95;;;;;;;;;;5013639;28;20025;-65
2021/07/29 05:25:36;;;;;;;5.53;2.92;;;;;;;;;;5013577;28;20045;-65
2021/07/29 05:28:02;;;;;;;5.20;2.78;;;;;;;;;;5012837;28;20067;-65
2021/07/29 05:30:28;;;;;;;3.60;2.60;;;;;;;;;;5013460;28;20474;-65
2021/07/29 05:32:54;;;;;;;7.45;2.95;;;;;;;;;;5013938;28;20013;-65
2021/07/29 05:35:19;;;;;;;10.75;2.70;;;;;;;;;;5013634;28;20506;-66
2021/07/29 05:37:44;;;;;;;5.40;2.97;;;;;;;;;;5013567;28;20065;-65
2021/07/29 05:40:10;;;;;;;8.05;3.60;;;;;;;;;;5013627;28;20381;-66
2021/07/29 05:42:36;;;;;;;6.03;2.80;;;;;;;;;;5012825;28;20501;-63
2021/07/29 05:45:02;;;;;;;7.93;2.80;;;;;;;;;;5011909;28;20625;-63
2021/07/29 05:47:27;;;;;;;13.65;3.63;;;;;;;;;;5012043;28;20033;-63
2021/07/29 05:49:53;;;;;;;14.23;3.53;;;;;;;;;;5011590;28;20014;-67
2021/07/29 05:52:19;;;;;;;6.70;3.08;;;;;;;;;;5011050;28;20032;-64
2021/07/29 05:54:44;;;;;;;8.70;3.35;;;;;;;;;;5012891;28;20022;-63
2021/07/29 05:57:09;;;;;;;6.43;2.55;;;;;;;;;;5010887;28;20083;-73
2021/07/29 05:59:35;;;;;;;10.30;2.65;;;;;;;;;;5015385;28;20020;-66
2021/07/29 06:02:01;;;;;;;8.25;2.70;;;;;;;;;;5015107;28;20025;-70
2021/07/29 06:04:27;;;;;;;4.03;2.17;;;;;;;;;;4997587;28;20045;-66
2021/07/29 06:06:54;;;;;;;3.83;2.65;;;;;;;;;;5013307;28;20489;-69
2021/07/29 06:09:19;;;;;;;3.75;2.80;;;;;;;;;;5002790;28;20022;-68
2021/07/29 06:11:44;;;;;;;3.83;2.60;;;;;;;;;;5017772;28;20025;-70
2021/07/29 06:14:10;;;;;;;6.10;2.75;;;;;;;;;;5010221;28;20022;-66
2021/07/29 06:16:36;;;;;;;5.90;3.15;;;;;;;;;;5012458;28;20076;-66
2021/07/29 06:19:06;;;;;;;4.20;2.97;;;;;;;;;;5019470;28;20025;-67
2021/07/29 06:21:34;;;;;;;3.55;2.45;;;;;;;;;;5005853;28;20022;-64
2021/07/29 06:23:59;;;;;;;4.47;3.10;;;;;;;;;;5011074;28;20014;-64
2021/07/29 06:26:24;;;;;;;5.70;2.70;;;;;;;;;;5010403;28;20105;-64
2021/07/29 06:28:50;;;;;;;4.60;2.58;;;;;;;;;;5012276;28;20052;-62
2021/07/29 06:31:15;;;;;;;2.72;2.40;;;;;;;;;;5011031;28;20126;-72
2021/07/29 06:33:44;;;;;;;4.47;2.53;;;;;;;;;;5006333;28;20462;-72
2021/07/29 06:36:12;;;;;;;5.63;2.80;;;;;;;;;;5011162;28;20076;-64
2021/07/29 06:38:38;;;;;;;5.20;2.60;;;;;;;;;;5010617;28;20113;-65
2021/07/29 06:41:05;;;;;;;3.92;2.53;;;;;;;;;;5011257;28;20037;-64
2021/07/29 06:43:31;;;;;;;5.43;2.72;;;;;;;;;;5024735;28;20072;-66
2021/07/29 06:46:01;;;;;;;3.58;2.17;;;;;;;;;;5010325;28;20018;-67
2021/07/29 06:48:26;;;;;;;3.25;2.40;;;;;;;;;;5010537;28;20045;-65
2021/07/29 06:50:52;;;;;;;6.30;2.88;;;;;;;;;;5010312;28;20031;-69
2021/07/29 06:53:18;;;;;;;4.13;3.00;;;;;;;;;;5010292;28;20022;-69
2021/07/29 06:55:43;;;;;;;5.93;3.28;;;;;;;;;;5011629;28;20049;-72
2021/07/29 06:58:13;;;;;;;25.25;3.50;;;;;;;;;;5014797;28;20398;-63
2021/07/29 07:00:38;;;;;;;3.20;2.60;;;;;;;;;;5032108;28;20108;-64
2021/07/29 07:03:10;;;;;;;3.90;2.75;;;;;;;;;;5025590;28;20109;-65
2021/07/29 07:05:35;;;;;;;4.45;2.63;;;;;;;;;;4991014;28;20096;-62
2021/07/29 07:08:00;;;;;;;4.93;2.50;;;;;;;;;;4991125;28;20035;-62
2021/07/29 07:10:26;;;;;;;6.28;2.85;;;;;;;;;;4991675;28;20365;-72
2021/07/29 07:12:51;;;;;;;5.00;2.60;;;;;;;;;;4994982;28;20018;-62
2021/07/29 07:15:17;;;;;;;8.32;2.60;;;;;;;;;;4991111;28;20076;-63
2021/07/29 07:17:42;;;;;;;4.10;2.60;;;;;;;;;;4991234;28;20503;-65
2021/07/29 07:20:08;;;;;;;3.83;2.28;;;;;;;;;;4991316;28;20360;-67
2021/07/29 07:22:35;;;;;;;2.47;2.28;;;;;;;;;;4992916;28;20068;-63
2021/07/29 07:25:00;;;;;;;2.80;2.25;;;;;;;;;;4993658;28;20168;-63
2021/07/29 07:27:26;;;;;;;3.72;2.10;;;;;;;;;;4994568;28;20101;-71
2021/07/29 07:29:51;;;;;;;3.10;2.08;;;;;;;;;;4994417;28;20033;-67
2021/07/29 07:32:16;;;;;;;7.55;2.03;;;;;;;;;;4994034;28;20587;-62
2021/07/29 07:34:42;;;;;;;4.30;2.17;;;;;;;;;;4995211;28;20113;-67
2021/07/29 07:37:07;;;;;;;3.67;2.17;;;;;;;;;;5008532;28;20037;-64
2021/07/29 07:39:34;;;;;;;3.17;2.30;;;;;;;;;;5001152;28;20022;-63
2021/07/29 07:41:59;;;;;;;5.18;1.90;;;;;;;;;;4973587;28;20027;-63
2021/07/29 07:44:25;;;;;;;4.53;2.03;;;;;;;;;;4993623;28;20119;-63
2021/07/29 07:46:50;;;;;;;3.58;1.83;;;;;;;;;;4994314;28;20026;-64
2021/07/29 07:49:16;;;;;;;4.32;2.20;;;;;;;;;;4994018;28;20028;-65
2021/07/29 07:51:42;;;;;;;2.80;2.08;;;;;;;;;;4977366;28;20018;-71
2021/07/29 07:54:08;;;;;;;3.45;2.05;;;;;;;;;;4994855;28;20022;-71
2021/07/29 07:56:33;;;;;;;5.90;1.85;;;;;;;;;;4994390;28;20080;-72
2021/07/29 07:58:58;;;;;;;3.72;2.17;;;;;;;;;;5014632;28;20091;-72
2021/07/29 08:01:24;;;;;;;3.45;2.33;;;;;;;;;;4993819;28;20025;-72
2021/07/29 08:03:49;;;;;;;3.55;2.30;;;;;;;;;;4976210;28;20385;-72
2021/07/29 08:06:14;;;;;;;5.80;2.33;;;;;;;;;;5012970;28;20022;-64
2021/07/29 08:08:40;;;;;;;4.78;2.22;;;;;;;;;;5014540;28;20034;-64
2021/07/29 08:11:05;;;;;;;6.85;2.13;;;;;;;;;;5013443;28;20014;-63
2021/07/29 08:13:31;;;;;;;6.10;2.60;;;;;;;;;;4997524;28;20482;-64
2021/07/29 08:15:56;;;;;;;4.90;2.35;;;;;;;;;;5014057;28;20026;-65
2021/07/29 08:18:22;;;;;;;3.88;2.20;;;;;;;;;;5014348;28;20044;-67
2021/07/29 08:20:48;;;;;;;4.07;1.92;;;;;;;;;;5014156;28;20018;-67
2021/07/29 08:23:13;;;;;;;4.97;2.08;;;;;;;;;;5013839;28;20026;-67
2021/07/29 08:25:39;;;;;;;5.15;2.28;;;;;;;;;;5013456;28;20045;-68
2021/07/29 08:28:04;;;;;;;7.65;2.10;;;;;;;;;;5012503;28;20025;-68
2021/07/29 08:30:30;;;;;;;3.38;1.75;;;;;;;;;;5013435;28;20378;-68
2021/07/29 08:32:55;;;;;;;2.95;2.25;;;;;;;;;;5013801;28;20022;-67
2021/07/29 08:35:21;;;;;;;6.03;2.60;;;;;;;;;;5012898;28;20049;-66
2021/07/29 08:37:47;;;;;;;6.38;2.45;;;;;;;;;;5012803;28;20069;-68
2021/07/29 08:40:17;;;;;;;3.47;2.08;;;;;;;;;;5018640;28;20033;-67
2021/07/29 08:42:43;;;;;;;5.72;2.17;;;;;;;;;;5028729;28;20014;-67
2021/07/29 08:45:09;;;;;;;5.25;2.40;;;;;;;;;;5028381;28;20042;-67
2021/07/29 08:47:34;;;;;;;2.47;1.90;;;;;;;;;;5037386;28;20009;-66
2021/07/29 08:50:04;;;;;;;4.75;2.10;;;;;;;;;;5036904;28;20025;-68
2021/07/29 08:52:30;;;;;;;3.50;1.73;;;;;;;;;;5034340;28;20026;-67
2021/07/29 08:54:55;;;;;;;2.90;1.90;;;;;;;;;;5016970;28;20013;-67
2021/07/29 08:57:28;;;;;;;6.05;2.38;;;;;;;;;;5020896;28;20041;-66
2021/07/29 08:59:53;;;;;;;5.75;1.95;;;;;;;;;;5014138;28;20026;-67
2021/07/29 09:02:23;;;;;;;8.18;2.35;;;;;;;;;;5024272;28;20522;-65
2021/07/29 09:05:07;;;;;;;5.10;2.05;;;;;;;;;;5008256;28;20513;-66
2021/07/29 09:07:35;;;;;;;5.45;2.10;;;;;;;;;;5013373;28;20045;-66
2021/07/29 09:10:03;;;;;;;4.25;1.90;;;;;;;;;;5004046;28;20026;-66
2021/07/29 09:12:29;;;;;;;2.28;1.70;;;;;;;;;;4997196;28;20127;-67
2021/07/29 09:14:54;;;;;;;6.55;2.13;;;;;;;;;;5013524;28;20053;-66
2021/07/29 09:17:20;;;;;;;3.30;1.88;;;;;;;;;;5020090;28;20072;-66
2021/07/29 09:19:47;;;;;;;2.88;1.70;;;;;;;;;;5013993;28;20471;-66
2021/07/29 09:22:13;;;;;;;2.45;1.75;;;;;;;;;;5012652;28;20022;-66
2021/07/29 09:24:59;;;;;;;4.40;1.80;;;;;;;;;;5012039;28;20036;-67
2021/07/29 09:27:25;;;;;;;3.22;1.58;;;;;;;;;;5007796;28;20026;-66
2021/07/29 09:29:50;;;;;;;4.25;2.13;;;;;;;;;;5011996;28;20316;-67
2021/07/29 09:32:17;;;;;;;4.47;1.83;;;;;;;;;;5010197;28;20056;-64
2021/07/29 09:34:49;;;;;;;5.95;2.35;;;;;;;;;;5009482;28;20402;-66
2021/07/29 09:37:15;;;;;;;4.70;1.80;;;;;;;;;;4993384;28;20165;-63
2021/07/29 09:39:41;;;;;;;3.90;1.80;;;;;;;;;;5014035;28;20096;-66
2021/07/29 09:42:22;;;;;;;3.90;2.13;;;;;;;;;;5017129;28;20018;-66
2021/07/29 09:44:49;;;;;;;2.50;1.90;;;;;;;;;;4981077;28;20419;-64
2021/07/29 09:47:16;;;;;;;5.28;1.80;;;;;;;;;;5005967;28;20134;-66
2021/07/29 09:49:41;;;;;;;5.55;1.77;;;;;;;;;;4993332;28;20021;-67
2021/07/29 09:52:07;;;;;;;5.35;1.83;;;;;;;;;;5004095;28;20101;-67
2021/07/29 09:54:35;;;;;;;3.80;1.80;;;;;;;;;;5011812;28;20029;-66
2021/07/29 09:57:01;;;;;;;3.22;2.10;;;;;;;;;;5012115;28;20033;-67
2021/07/29 09:59:26;;;;;;;5.32;1.77;;;;;;;;;;4994942;28;20026;-66
2021/07/29 10:01:52;;;;;;;3.05;1.67;;;;;;;;;;5026572;28;20393;-66
2021/07/29 10:04:27;;;;;;;4.05;1.58;;;;;;;;;;5020920;28;20061;-67
2021/07/29 10:06:53;;;;;;;2.38;1.65;;;;;;;;;;5018356;28;20098;-66
2021/07/29 10:09:19;;;;;;;2.25;1.70;;;;;;;;;;5021653;28;20030;-66
2021/07/29 10:11:48;;;;;;;4.75;1.85;;;;;;;;;;5018613;28;20068;-67
2021/07/29 10:14:33;;;;;;;2.28;1.70;;;;;;;;;;5012749;28;20026;-67
2021/07/29 10:17:00;;;;;;;4.57;1.90;;;;;;;;;;4999702;28;20086;-67
2021/07/29 10:19:26;;;;;;;2.75;1.90;;;;;;;;;;5019904;28;20030;-67
2021/07/29 10:21:51;;;;;;;1.98;1.80;;;;;;;;;;5023663;28;20188;-66
2021/07/29 10:24:16;;;;;;;4.00;2.20;;;;;;;;;;5017078;28;20033;-66
2021/07/29 10:27:03;;;;;;;4.50;2.25;;;;;;;;;;5020606;28;20044;-66
2021/07/29 10:29:30;;;;;;;2.17;1.65;;;;;;;;;;5020021;28;20029;-66
2021/07/29 10:31:59;;;;;;;3.90;1.70;;;;;;;;;;5020791;28;20021;-67
2021/07/29 10:34:26;;;;;;;5.43;1.75;;;;;;;;;;5016472;28;20505;-66
2021/07/29 10:36:51;;;;;;;4.80;1.70;;;;;;;;;;5019686;28;20038;-66
2021/07/29 10:39:16;;;;;;;4.22;1.67;;;;;;;;;;5016860;28;20437;-66
2021/07/29 10:41:43;;;;;;;2.15;1.60;;;;;;;;;;5012365;28;20022;-66
2021/07/29 10:44:10;;;;;;;5.20;1.98;;;;;;;;;;5012605;28;20383;-65
2021/07/29 10:46:54;;;;;;;2.80;1.70;;;;;;;;;;5011914;28;20037;-66
2021/07/29 10:49:20;;;;;;;11.52;1.85;;;;;;;;;;5012856;28;20024;-66
2021/07/29 10:51:58;;;;;;;5.30;1.50;;;;;;;;;;5012058;28;20463;-67
2021/07/29 10:54:23;;;;;;;9.55;2.67;;;;;;;;;;5023248;28;20034;-67
2021/07/29 10:56:49;;;;;;;4.82;1.60;;;;;;;;;;5027556;28;20092;-67
2021/07/29 10:59:17;;;;;;;3.50;1.52;;;;;;;;;;5015109;28;20502;-67
2021/07/29 11:01:42;;;;;;;;;;;;;;;;;;5015708;28;20021;-67
2021/07/29 11:04:08;;;;;;;4.30;1.80;;;;;;;;;;5005372;28;20015;-67
2021/07/29 11:06:37;;;;;;;2.08;1.50;;;;;;;;;;5002930;28;20021;-67
2021/07/29 11:09:13;;;;;;;4.03;1.95;;;;;;;;;;4992323;28;20073;-65
2021/07/29 11:11:39;;;;;;;2.35;1.55;;;;;;;;;;4992916;28;20023;-66
2021/07/29 11:14:05;;;;;;;3.95;1.85;;;;;;;;;;4994465;28;20074;-66
2021/07/29 11:16:31;;;;;;;2.63;1.67;;;;;;;;;;4995097;28;20046;-66
2021/07/29 11:19:00;;;;;;;4.15;1.70;;;;;;;;;;4961248;28;20066;-65
2021/07/29 11:21:26;;;;;;;3.92;1.40;;;;;;;;;;4992247;28;20435;-65
2021/07/29 11:23:52;;;;;;;2.97;1.58;;;;;;;;;;4995260;28;20178;-67
2021/07/29 11:26:17;;;;;;;3.30;1.85;;;;;;;;;;4994835;28;20101;-66
2021/07/29 11:28:43;;;;;;;1.60;1.50;;;;;;;;;;4994948;28;20084;-67
2021/07/29 11:31:08;;;;;;;3.90;1.70;;;;;;;;;;4994001;28;20026;-66
2021/07/29 11:33:34;;;;;;;3.03;1.67;;;;;;;;;;4995374;28;20023;-66
2021/07/29 11:36:10;;;;;;;2.03;1.70;;;;;;;;;;4993987;28;20018;-66
2021/07/29 11:38:35;;;;;;;5.50;1.92;;;;;;;;;;4994106;28;20050;-66
2021/07/29 11:41:01;;;;;;;1.92;1.70;;;;;;;;;;4994063;28;20100;-65
2021/07/29 11:43:28;;;;;;;1.92;1.25;;;;;;;;;;4993705;28;20019;-66
2021/07/29 11:46:04;;;;;;;5.03;1.75;;;;;;;;;;4974335;28;20394;-65
2021/07/29 11:48:30;;;;;;;6.80;1.60;;;;;;;;;;4997793;28;20025;-67
2021/07/29 11:50:55;;;;;;;6.38;2.03;;;;;;;;;;5002331;28;20014;-65
2021/07/29 11:53:35;;;;;;;9.00;2.10;;;;;;;;;;4994589;28;20038;-66
2021/07/29 11:56:01;;;;;;;11.05;3.03;;;;;;;;;;4994315;28;20025;-66
2021/07/29 11:58:26;;;;;;;4.22;1.60;;;;;;;;;;4993061;28;20019;-67
2021/07/29 12:00:54;;;;;;;2.47;1.73;;;;;;;;;;4993790;28;20041;-66
2021/07/29 12:03:31;;;;;;;7.80;1.80;;;;;;;;;;4997260;28;20046;-66
2021/07/29 12:05:57;;;;;;;3.47;1.80;;;;;;;;;;5013365;28;20036;-66
2021/07/29 12:08:22;;;;;;;3.53;1.60;;;;;;;;;;5012261;28;20014;-66
2021/07/29 12:10:51;;;;;;;1.98;1.58;;;;;;;;;;5014013;28;20026;-66
2021/07/29 12:13:18;;;;;;;4.40;1.80;;;;;;;;;;5014155;28;20540;-64
2021/07/29 12:15:48;;;;;;;2.05;1.40;;;;;;;;;;5012966;28;20060;-65
2021/07/29 12:18:15;;;;;;;5.70;1.63;;;;;;;;;;4995888;28;20069;-66
2021/07/29 12:20:42;;;;;;;2.78;1.92;;;;;;;;;;5014785;28;20024;-66
2021/07/29 12:23:11;;;;;;;2.05;1.85;;;;;;;;;;5016745;28;20010;-63
2021/07/29 12:25:36;;;;;;;2.45;1.88;;;;;;;;;;5023594;28;20014;-63
2021/07/29 12:28:02;;;;;;;2.13;1.80;;;;;;;;;;5014104;28;20096;-62
2021/07/29 12:30:33;;;;;;;4.03;1.77;;;;;;;;;;5014045;28;20101;-63
2021/07/29 12:33:05;;;;;;;7.95;2.13;;;;;;;;;;5014153;28;20482;-62
2021/07/29 12:35:31;;;;;;;1.67;1.58;;;;;;;;;;4991865;28;20120;-63
2021/07/29 12:38:00;;;;;;;2.63;1.70;;;;;;;;;;5009261;28;20030;-63
2021/07/29 12:40:27;;;;;;;5.88;1.90;;;;;;;;;;5013832;28;20014;-64
2021/07/29 12:42:52;;;;;;;3.28;2.10;;;;;;;;;;4996457;28;20475;-64
2021/07/29 12:45:18;;;;;;;8.45;2.42;;;;;;;;;;5013711;28;20025;-63
2021/07/29 12:48:02;;;;;;;3.75;2.08;;;;;;;;;;5013749;28;20060;-63
2021/07/29 12:50:37;;;;;;;5.57;1.80;;;;;;;;;;5013648;28;20374;-64
2021/07/29 12:53:10;;;;;;;1.83;1.60;;;;;;;;;;5013224;28;20028;-64
2021/07/29 12:55:37;;;;;;;5.38;1.92;;;;;;;;;;5013177;28;20018;-63
2021/07/29 12:58:04;;;;;;;7.35;1.90;;;;;;;;;;5013161;28;20073;-63
2021/07/29 13:00:29;;;;;;;2.63;1.92;;;;;;;;;;5017636;28;20499;-63
2021/07/29 13:02:55;;;;;;;2.45;1.60;;;;;;;;;;5021511;28;20107;-63
2021/07/29 13:05:20;;;;;;;3.78;1.70;;;;;;;;;;5027776;28;20050;-63
2021/07/29 13:07:47;;;;;;;3.10;1.90;;;;;;;;;;5028946;28;20402;-63
2021/07/29 13:10:12;;;;;;;3.30;2.17;;;;;;;;;;5034429;28;20053;-62
2021/07/29 13:12:38;;;;;;;4.97;2.15;;;;;;;;;;5010499;28;20041;-63
2021/07/29 13:15:04;;;;;;;4.05;1.75;;;;;;;;;;5013240;28;20029;-67
2021/07/29 13:17:29;;;;;;;2.40;1.70;;;;;;;;;;5014265;28;20041;-67
2021/07/29 13:20:00;;;;;;;10.70;2.20;;;;;;;;;;5012940;28;20084;-67
2021/07/29 13:22:25;;;;;;;6.05;2.05;;;;;;;;;;5014227;28;20029;-67
2021/07/29 13:24:51;;;;;;;3.42;1.67;;;;;;;;;;5013376;28;20428;-66
2021/07/29 13:27:17;;;;;;;6.15;1.98;;;;;;;;;;5013450;28;20018;-67
2021/07/29 13:29:42;;;;;;;4.15;2.17;;;;;;;;;;5013015;28;20026;-67
2021/07/29 13:32:08;;;;;;;5.25;2.20;;;;;;;;;;4995838;28;20024;-69
2021/07/29 13:34:33;;;;;;;6.28;2.20;;;;;;;;;;4995607;28;20489;-69
2021/07/29 13:36:58;;;;;;;4.20;1.90;;;;;;;;;;5011912;28;20030;-68
2021/07/29 13:39:24;;;;;;;4.47;1.98;;;;;;;;;;5011814;28;20026;-69
2021/07/29 13:41:53;;;;;;;4.50;1.95;;;;;;;;;;5011840;28;20104;-69
2021/07/29 13:44:22;;;;;;;;;;;;;;;;;;5012314;28;20013;-69
2021/07/29 13:46:48;;;;;;;4.53;2.22;;;;;;;;;;5015969;28;19913;-64
2021/07/29 13:49:14;;;;;;;7.28;2.28;;;;;;;;;;5014647;28;20024;-63
2021/07/29 13:51:39;;;;;;;4.13;2.15;;;;;;;;;;5012601;28;20120;-63
2021/07/29 13:54:05;;;;;;;7.45;2.15;;;;;;;;;;5012747;28;20026;-63
2021/07/29 13:56:30;;;;;;;4.53;2.08;;;;;;;;;;5012323;28;20432;-63
2021/07/29 13:58:57;;;;;;;5.10;2.30;;;;;;;;;;5012416;28;20029;-63
2021/07/29 14:01:24;;;;;;;2.92;2.08;;;;;;;;;;5012309;28;20029;-63
2021/07/29 14:03:49;;;;;;;2.15;1.90;;;;;;;;;;5012108;28;20045;-63
2021/07/29 14:06:15;;;;;;;3.50;2.10;;;;;;;;;;5011537;28;20029;-63
2021/07/29 14:08:40;;;;;;;3.58;1.92;;;;;;;;;;5012946;28;20021;-63
2021/07/29 14:11:06;;;;;;;7.38;2.35;;;;;;;;;;5012051;28;20483;-62
2021/07/29 14:13:32;;;;;;;5.97;1.95;;;;;;;;;;5012553;28;20022;-63
2021/07/29 14:15:57;;;;;;;2.83;1.92;;;;;;;;;;5011738;28;20052;-63
2021/07/29 14:18:22;;;;;;;3.50;2.00;;;;;;;;;;5012603;28;20101;-63
2021/07/29 14:20:59;;;;;;;3.70;2.25;;;;;;;;;;5009717;28;20121;-64
2021/07/29 14:23:25;;;;;;;2.20;1.92;;;;;;;;;;5012128;28;20100;-63
2021/07/29 14:25:50;;;;;;;4.78;2.17;;;;;;;;;;5012012;28;20113;-63
2021/07/29 14:28:19;;;;;;;4.50;2.35;;;;;;;;;;5010016;28;20470;-63
2021/07/29 14:30:44;;;;;;;;;;;;;;;;;;5015792;28;20065;-66
2021/07/29 14:33:10;;;;;;;5.60;2.13;;;;;;;;;;5025144;28;19952;-63
2021/07/29 14:35:35;;;;;;;4.70;2.13;;;;;;;;;;5018508;28;20040;-63
2021/07/29 14:38:05;;;;;;;3.20;1.88;;;;;;;;;;5018469;28;20386;-64
2021/07/29 14:40:31;;;;;;;2.70;2.45;;;;;;;;;;5018468;28;20449;-64
2021/07/29 14:42:57;;;;;;;8.05;2.25;;;;;;;;;;5017118;28;20056;-64